Terminal Aerodrome Forecast
Issued by NWS

Home | Current Version | Previous Version | Text Only | Print | Product List | Glossary On
Versions: 1 2 3 4 5 6 7 8 9 10 11 12 13 14 15 16 17 18 19 20 21
772
FTUS41 KCAR 091402 AAA
TAFPQI
TAF AMD
KPQI 091402Z 0914/1012 36010KT 5SM -SN BR OVC045
      TEMPO 0914/0918 1SM BR OVC025
     FM091830 02010KT 1 1/2SM -SN BR OVC015
     FM092130 03007KT 5SM -SHSN OVC012
     FM100300 01005KT 6SM -SHSN BR OVC010
     FM100800 35004KT P6SM OVC018=

USA.gov is the U.S. government's official web portal to all federal, state and local government web resources and services.